sensor_id;sensor_type;location;lat;lon;timestamp;pressure;altitude;pressure_sealevel;temperature;humidity
34124;BME280;13153;52.316;21.166;2022-12-11T00:01:19;99533.28;;;3.55;65.05
34124;BME280;13153;52.316;21.166;2022-12-11T00:03:46;99530.81;;;3.58;64.95
34124;BME280;13153;52.316;21.166;2022-12-11T00:06:16;99525.84;;;3.64;65.13
34124;BME280;13153;52.316;21.166;2022-12-11T00:08:43;99521.66;;;3.68;65.18
34124;BME280;13153;52.316;21.166;2022-12-11T00:11:12;99524.97;;;3.64;65.13
34124;BME280;13153;52.316;21.166;2022-12-11T00:13:38;99518.94;;;3.65;65.03
34124;BME280;13153;52.316;21.166;2022-12-11T00:16:04;99525.66;;;3.60;65.05
34124;BME280;13153;52.316;21.166;2022-12-11T00:18:30;99536.69;;;3.54;65.06
34124;BME280;13153;52.316;21.166;2022-12-11T00:21:03;99532.50;;;3.58;64.72
34124;BME280;13153;52.316;21.166;2022-12-11T00:23:29;99534.81;;;3.50;64.98
34124;BME280;13153;52.316;21.166;2022-12-11T00:25:55;99525.06;;;3.45;65.40
34124;BME280;13153;52.316;21.166;2022-12-11T00:28:21;99524.34;;;3.49;65.46
34124;BME280;13153;52.316;21.166;2022-12-11T00:30:48;99542.78;;;3.55;65.00
34124;BME280;13153;52.316;21.166;2022-12-11T00:33:15;99539.38;;;3.56;65.00
34124;BME280;13153;52.316;21.166;2022-12-11T00:35:46;99534.28;;;3.59;64.54
34124;BME280;13153;52.316;21.166;2022-12-11T00:38:20;99527.31;;;3.58;64.88
34124;BME280;13153;52.316;21.166;2022-12-11T00:40:47;99520.91;;;3.50;64.88
34124;BME280;13153;52.316;21.166;2022-12-11T00:43:14;99528.00;;;3.54;64.65
34124;BME280;13153;52.316;21.166;2022-12-11T00:45:43;99525.53;;;3.57;65.39
34124;BME280;13153;52.316;21.166;2022-12-11T00:48:10;99520.78;;;3.47;65.26
34124;BME280;13153;52.316;21.166;2022-12-11T00:50:37;99524.53;;;3.53;65.14
34124;BME280;13153;52.316;21.166;2022-12-11T00:53:05;99524.66;;;3.56;65.43
34124;BME280;13153;52.316;21.166;2022-12-11T00:55:32;99523.69;;;3.54;64.96
34124;BME280;13153;52.316;21.166;2022-12-11T00:58:00;99528.91;;;3.54;65.20
34124;BME280;13153;52.316;21.166;2022-12-11T01:00:26;99521.66;;;3.46;65.34
34124;BME280;13153;52.316;21.166;2022-12-11T01:02:51;99514.94;;;3.52;65.36
34124;BME280;13153;52.316;21.166;2022-12-11T01:05:17;99523.44;;;3.48;64.76
34124;BME280;13153;52.316;21.166;2022-12-11T01:07:43;99524.28;;;3.47;64.81
34124;BME280;13153;52.316;21.166;2022-12-11T01:10:13;99525.47;;;3.33;64.72
34124;BME280;13153;52.316;21.166;2022-12-11T01:12:52;99530.84;;;3.38;65.05
34124;BME280;13153;52.316;21.166;2022-12-11T01:15:20;99526.19;;;3.51;65.57
34124;BME280;13153;52.316;21.166;2022-12-11T01:17:48;99529.00;;;3.35;64.65
34124;BME280;13153;52.316;21.166;2022-12-11T01:20:15;99529.00;;;3.35;65.00
34124;BME280;13153;52.316;21.166;2022-12-11T01:22:40;99518.47;;;3.32;65.08
34124;BME280;13153;52.316;21.166;2022-12-11T01:25:07;99522.16;;;3.37;65.18
34124;BME280;13153;52.316;21.166;2022-12-11T01:27:38;99522.09;;;3.36;64.82
34124;BME280;13153;52.316;21.166;2022-12-11T01:30:06;99516.91;;;3.36;65.18
34124;BME280;13153;52.316;21.166;2022-12-11T01:32:34;99512.59;;;3.36;64.81
34124;BME280;13153;52.316;21.166;2022-12-11T01:35:03;99501.81;;;3.27;64.55
34124;BME280;13153;52.316;21.166;2022-12-11T01:37:29;99493.38;;;3.12;65.17
34124;BME280;13153;52.316;21.166;2022-12-11T01:39:55;99497.50;;;3.07;65.66
34124;BME280;13153;52.316;21.166;2022-12-11T01:42:21;99485.94;;;3.00;65.79
34124;BME280;13153;52.316;21.166;2022-12-11T01:47:12;99478.22;;;3.22;65.54
34124;BME280;13153;52.316;21.166;2022-12-11T01:49:40;99476.50;;;3.23;65.09
34124;BME280;13153;52.316;21.166;2022-12-11T01:52:18;99469.97;;;3.33;65.55
34124;BME280;13153;52.316;21.166;2022-12-11T01:54:46;99467.19;;;3.28;65.32
34124;BME280;13153;52.316;21.166;2022-12-11T01:57:14;99475.81;;;3.27;64.33
34124;BME280;13153;52.316;21.166;2022-12-11T01:59:44;99461.81;;;3.23;64.64
34124;BME280;13153;52.316;21.166;2022-12-11T02:02:19;99467.66;;;3.18;64.03
34124;BME280;13153;52.316;21.166;2022-12-11T02:04:47;99465.69;;;3.12;63.95
34124;BME280;13153;52.316;21.166;2022-12-11T02:07:14;99470.50;;;3.03;64.23
34124;BME280;13153;52.316;21.166;2022-12-11T02:09:43;99460.09;;;3.03;64.41
34124;BME280;13153;52.316;21.166;2022-12-11T02:15:16;99455.53;;;2.97;64.63
34124;BME280;13153;52.316;21.166;2022-12-11T02:18:01;99457.81;;;2.90;64.59
34124;BME280;13153;52.316;21.166;2022-12-11T02:23:22;99437.00;;;2.88;64.35
34124;BME280;13153;52.316;21.166;2022-12-11T02:26:31;99454.41;;;2.91;64.78
34124;BME280;13153;52.316;21.166;2022-12-11T02:29:07;99440.00;;;2.99;64.29
34124;BME280;13153;52.316;21.166;2022-12-11T02:31:40;99438.81;;;2.91;64.08
34124;BME280;13153;52.316;21.166;2022-12-11T02:34:32;99436.16;;;2.69;64.50
34124;BME280;13153;52.316;21.166;2022-12-11T02:37:06;99444.59;;;2.84;64.92
34124;BME280;13153;52.316;21.166;2022-12-11T02:39:37;99436.81;;;2.84;64.55
34124;BME280;13153;52.316;21.166;2022-12-11T02:42:07;99430.66;;;2.82;64.03
34124;BME280;13153;52.316;21.166;2022-12-11T02:44:34;99429.72;;;2.80;64.20
34124;BME280;13153;52.316;21.166;2022-12-11T02:47:06;99427.75;;;2.74;64.74
34124;BME280;13153;52.316;21.166;2022-12-11T02:49:34;99429.25;;;2.90;64.42
34124;BME280;13153;52.316;21.166;2022-12-11T02:52:02;99434.69;;;2.96;64.14
34124;BME280;13153;52.316;21.166;2022-12-11T02:54:35;99431.13;;;2.94;64.16
34124;BME280;13153;52.316;21.166;2022-12-11T02:57:12;99423.13;;;2.88;64.33
34124;BME280;13153;52.316;21.166;2022-12-11T02:59:44;99427.38;;;2.86;64.35
34124;BME280;13153;52.316;21.166;2022-12-11T03:02:12;99429.06;;;2.64;64.07
34124;BME280;13153;52.316;21.166;2022-12-11T03:04:41;99430.28;;;2.73;63.95
34124;BME280;13153;52.316;21.166;2022-12-11T03:07:13;99430.53;;;2.79;63.89
34124;BME280;13153;52.316;21.166;2022-12-11T03:09:43;99424.88;;;2.68;63.56
34124;BME280;13153;52.316;21.166;2022-12-11T03:12:16;99428.75;;;2.57;64.06
34124;BME280;13153;52.316;21.166;2022-12-11T03:14:44;99421.16;;;2.61;64.38
34124;BME280;13153;52.316;21.166;2022-12-11T03:17:23;99425.84;;;2.70;64.68
34124;BME280;13153;52.316;21.166;2022-12-11T03:29:07;99437.50;;;2.80;63.79
34124;BME280;13153;52.316;21.166;2022-12-11T03:31:48;99445.34;;;2.81;63.17
34124;BME280;13153;52.316;21.166;2022-12-11T03:34:30;99440.53;;;2.70;63.55
34124;BME280;13153;52.316;21.166;2022-12-11T03:36:59;99430.59;;;2.59;63.53
34124;BME280;13153;52.316;21.166;2022-12-11T03:39:36;99441.09;;;2.62;63.59
34124;BME280;13153;52.316;21.166;2022-12-11T03:42:09;99440.28;;;2.63;63.34
34124;BME280;13153;52.316;21.166;2022-12-11T03:44:37;99427.72;;;2.53;63.19
34124;BME280;13153;52.316;21.166;2022-12-11T03:47:07;99435.81;;;2.40;64.30
34124;BME280;13153;52.316;21.166;2022-12-11T03:49:40;99446.28;;;2.62;63.83
34124;BME280;13153;52.316;21.166;2022-12-11T03:52:09;99446.75;;;2.73;63.46
34124;BME280;13153;52.316;21.166;2022-12-11T03:54:39;99441.19;;;2.85;63.36
34124;BME280;13153;52.316;21.166;2022-12-11T03:57:09;99435.16;;;2.86;62.68
34124;BME280;13153;52.316;21.166;2022-12-11T03:59:36;99440.88;;;2.77;62.67
34124;BME280;13153;52.316;21.166;2022-12-11T04:02:03;99433.25;;;2.82;62.94
34124;BME280;13153;52.316;21.166;2022-12-11T04:04:37;99425.75;;;2.89;63.36
34124;BME280;13153;52.316;21.166;2022-12-11T04:07:03;99428.53;;;2.94;63.42
34124;BME280;13153;52.316;21.166;2022-12-11T04:09:29;99427.19;;;2.81;63.29
34124;BME280;13153;52.316;21.166;2022-12-11T04:11:55;99415.91;;;2.81;62.37
34124;BME280;13153;52.316;21.166;2022-12-11T04:14:20;99420.16;;;2.79;63.23
34124;BME280;13153;52.316;21.166;2022-12-11T04:17:24;99413.63;;;2.68;63.48
34124;BME280;13153;52.316;21.166;2022-12-11T04:20:10;99404.50;;;2.77;63.57
34124;BME280;13153;52.316;21.166;2022-12-11T04:22:54;99406.16;;;2.75;62.91
34124;BME280;13153;52.316;21.166;2022-12-11T04:26:14;99407.72;;;2.72;62.94
34124;BME280;13153;52.316;21.166;2022-12-11T04:28:42;99404.88;;;2.65;63.26
34124;BME280;13153;52.316;21.166;2022-12-11T04:31:13;99405.00;;;2.69;63.24
34124;BME280;13153;52.316;21.166;2022-12-11T04:33:40;99405.19;;;2.73;63.69
34124;BME280;13153;52.316;21.166;2022-12-11T04:36:06;99404.31;;;2.73;63.06
34124;BME280;13153;52.316;21.166;2022-12-11T04:38:32;99403.34;;;2.71;62.66
34124;BME280;13153;52.316;21.166;2022-12-11T04:41:06;99400.06;;;2.75;62.93
34124;BME280;13153;52.316;21.166;2022-12-11T04:43:32;99400.25;;;2.79;62.65
34124;BME280;13153;52.316;21.166;2022-12-11T04:46:10;99397.84;;;2.84;62.96
34124;BME280;13153;52.316;21.166;2022-12-11T04:48:37;99396.91;;;2.82;62.95
34124;BME280;13153;52.316;21.166;2022-12-11T04:51:04;99396.84;;;2.80;62.62
34124;BME280;13153;52.316;21.166;2022-12-11T04:53:30;99398.66;;;2.83;63.33
34124;BME280;13153;52.316;21.166;2022-12-11T04:55:56;99398.94;;;2.90;62.51
34124;BME280;13153;52.316;21.166;2022-12-11T04:58:24;99393.16;;;2.75;62.96
34124;BME280;13153;52.316;21.166;2022-12-11T05:00:50;99393.03;;;2.72;63.11
34124;BME280;13153;52.316;21.166;2022-12-11T05:03:18;99393.78;;;2.70;63.12
34124;BME280;13153;52.316;21.166;2022-12-11T05:05:52;99392.03;;;2.69;62.99
34124;BME280;13153;52.316;21.166;2022-12-11T05:08:20;99381.50;;;2.65;62.39
34124;BME280;13153;52.316;21.166;2022-12-11T05:11:01;99368.84;;;2.52;63.08
34124;BME280;13153;52.316;21.166;2022-12-11T05:13:28;99370.72;;;2.56;62.81
34124;BME280;13153;52.316;21.166;2022-12-11T05:15:55;99362.88;;;2.55;63.06
34124;BME280;13153;52.316;21.166;2022-12-11T05:18:21;99359.84;;;2.44;63.12
34124;BME280;13153;52.316;21.166;2022-12-11T05:20:58;99359.72;;;2.41;63.14
34124;BME280;13153;52.316;21.166;2022-12-11T05:23:25;99346.09;;;2.47;62.85
34124;BME280;13153;52.316;21.166;2022-12-11T05:25:56;99351.44;;;2.29;63.25
34124;BME280;13153;52.316;21.166;2022-12-11T05:28:24;99350.72;;;2.33;63.18
34124;BME280;13153;52.316;21.166;2022-12-11T05:31:15;99344.00;;;2.38;63.18
34124;BME280;13153;52.316;21.166;2022-12-11T05:33:43;99341.28;;;2.35;63.59
34124;BME280;13153;52.316;21.166;2022-12-11T05:36:16;99333.50;;;2.35;63.68
34124;BME280;13153;52.316;21.166;2022-12-11T05:38:43;99328.31;;;2.35;63.50
34124;BME280;13153;52.316;21.166;2022-12-11T05:41:14;99335.25;;;2.36;63.89
34124;BME280;13153;52.316;21.166;2022-12-11T05:43:40;99331.72;;;2.34;63.45
34124;BME280;13153;52.316;21.166;2022-12-11T05:46:31;99328.31;;;2.35;63.78
34124;BME280;13153;52.316;21.166;2022-12-11T05:49:00;99318.00;;;2.37;63.28
34124;BME280;13153;52.316;21.166;2022-12-11T05:51:27;99316.75;;;2.27;63.28
34124;BME280;13153;52.316;21.166;2022-12-11T05:53:56;99318.75;;;2.13;63.59
34124;BME280;13153;52.316;21.166;2022-12-11T05:56:26;99309.97;;;2.10;63.34
34124;BME280;13153;52.316;21.166;2022-12-11T05:58:54;99313.75;;;2.18;64.13
34124;BME280;13153;52.316;21.166;2022-12-11T06:01:30;99320.59;;;2.16;63.66
34124;BME280;13153;52.316;21.166;2022-12-11T06:03:59;99314.84;;;2.23;64.12
34124;BME280;13153;52.316;21.166;2022-12-11T06:06:26;99318.69;;;2.12;63.37
34124;BME280;13153;52.316;21.166;2022-12-11T06:08:54;99311.16;;;2.18;63.43
34124;BME280;13153;52.316;21.166;2022-12-11T06:11:22;99316.44;;;2.19;63.83
34124;BME280;13153;52.316;21.166;2022-12-11T06:13:48;99318.81;;;2.15;63.36
34124;BME280;13153;52.316;21.166;2022-12-11T06:16:14;99313.50;;;2.12;63.35
34124;BME280;13153;52.316;21.166;2022-12-11T06:18:43;99322.38;;;2.17;63.26
34124;BME280;13153;52.316;21.166;2022-12-11T06:23:45;99315.63;;;2.01;62.71
34124;BME280;13153;52.316;21.166;2022-12-11T06:26:13;99319.81;;;1.97;63.55
34124;BME280;13153;52.316;21.166;2022-12-11T06:28:39;99332.78;;;1.97;63.20
34124;BME280;13153;52.316;21.166;2022-12-11T06:31:05;99330.06;;;1.94;62.98
34124;BME280;13153;52.316;21.166;2022-12-11T06:33:32;99331.34;;;1.85;62.79
34124;BME280;13153;52.316;21.166;2022-12-11T06:36:12;99326.78;;;1.79;63.11
34124;BME280;13153;52.316;21.166;2022-12-11T06:38:39;99324.88;;;1.75;63.74
34124;BME280;13153;52.316;21.166;2022-12-11T06:41:07;99319.44;;;1.69;63.27
34124;BME280;13153;52.316;21.166;2022-12-11T06:43:36;99314.00;;;1.63;63.60
34124;BME280;13153;52.316;21.166;2022-12-11T06:46:09;99309.84;;;1.67;63.44
34124;BME280;13153;52.316;21.166;2022-12-11T06:48:36;99323.59;;;1.46;63.52
34124;BME280;13153;52.316;21.166;2022-12-11T06:51:07;99318.09;;;1.58;63.69
34124;BME280;13153;52.316;21.166;2022-12-11T06:53:34;99319.84;;;1.59;63.67
34124;BME280;13153;52.316;21.166;2022-12-11T06:56:07;99323.75;;;1.69;64.04
34124;BME280;13153;52.316;21.166;2022-12-11T06:58:35;99323.53;;;1.64;63.65
34124;BME280;13153;52.316;21.166;2022-12-11T07:01:03;99321.03;;;1.65;63.58
34124;BME280;13153;52.316;21.166;2022-12-11T07:03:30;99322.19;;;1.72;63.22
34124;BME280;13153;52.316;21.166;2022-12-11T07:06:00;99321.63;;;1.60;63.67
34124;BME280;13153;52.316;21.166;2022-12-11T07:08:28;99317.13;;;1.56;63.44
34124;BME280;13153;52.316;21.166;2022-12-11T07:10:54;99316.50;;;1.61;63.33
34124;BME280;13153;52.316;21.166;2022-12-11T07:13:19;99317.53;;;1.65;63.39
34124;BME280;13153;52.316;21.166;2022-12-11T07:15:45;99309.91;;;1.68;63.41
34124;BME280;13153;52.316;21.166;2022-12-11T07:18:11;99310.16;;;1.55;63.28
34124;BME280;13153;52.316;21.166;2022-12-11T07:20:38;99311.75;;;1.51;63.32
34124;BME280;13153;52.316;21.166;2022-12-11T07:23:03;99300.47;;;1.51;63.34
34124;BME280;13153;52.316;21.166;2022-12-11T07:25:29;99297.34;;;1.58;63.19
34124;BME280;13153;52.316;21.166;2022-12-11T07:27:55;99300.69;;;1.55;63.04
34124;BME280;13153;52.316;21.166;2022-12-11T07:30:20;99294.06;;;1.62;63.60
34124;BME280;13153;52.316;21.166;2022-12-11T07:32:46;99293.47;;;1.68;63.65
34124;BME280;13153;52.316;21.166;2022-12-11T07:35:12;99294.34;;;1.68;63.69
34124;BME280;13153;52.316;21.166;2022-12-11T07:37:40;99296.63;;;1.81;63.53
34124;BME280;13153;52.316;21.166;2022-12-11T07:40:06;99289.09;;;1.87;63.25
34124;BME280;13153;52.316;21.166;2022-12-11T07:42:32;99294.56;;;1.93;63.13
34124;BME280;13153;52.316;21.166;2022-12-11T07:44:58;99281.31;;;1.87;63.16
34124;BME280;13153;52.316;21.166;2022-12-11T07:47:23;99279.81;;;1.92;63.18
34124;BME280;13153;52.316;21.166;2022-12-11T07:49:49;99282.22;;;1.88;63.22
34124;BME280;13153;52.316;21.166;2022-12-11T07:52:15;99279.34;;;1.82;62.96
34124;BME280;13153;52.316;21.166;2022-12-11T07:54:41;99285.75;;;1.90;63.36
34124;BME280;13153;52.316;21.166;2022-12-11T07:57:06;99277.22;;;1.92;62.82
34124;BME280;13153;52.316;21.166;2022-12-11T07:59:32;99278.25;;;1.96;62.76
34124;BME280;13153;52.316;21.166;2022-12-11T08:01:58;99269.00;;;2.03;63.16
34124;BME280;13153;52.316;21.166;2022-12-11T08:04:24;99268.44;;;2.10;63.30
34124;BME280;13153;52.316;21.166;2022-12-11T08:06:49;99260.78;;;2.13;62.78
34124;BME280;13153;52.316;21.166;2022-12-11T08:09:15;99258.19;;;2.13;62.96
34124;BME280;13153;52.316;21.166;2022-12-11T08:11:41;99268.84;;;2.19;62.58
34124;BME280;13153;52.316;21.166;2022-12-11T08:14:07;99268.84;;;2.19;62.16
34124;BME280;13153;52.316;21.166;2022-12-11T08:16:34;99270.47;;;2.17;62.11
34124;BME280;13153;52.316;21.166;2022-12-11T08:18:59;99262.69;;;2.17;61.90
34124;BME280;13153;52.316;21.166;2022-12-11T08:21:27;99254.09;;;2.18;61.54
34124;BME280;13153;52.316;21.166;2022-12-11T08:23:54;99249.84;;;2.20;61.34
34124;BME280;13153;52.316;21.166;2022-12-11T08:26:24;99258.41;;;2.17;61.73
34124;BME280;13153;52.316;21.166;2022-12-11T08:28:51;99253.00;;;2.13;61.45
34124;BME280;13153;52.316;21.166;2022-12-11T08:31:18;99255.66;;;2.14;61.31
34124;BME280;13153;52.316;21.166;2022-12-11T08:33:45;99258.31;;;2.16;61.82
34124;BME280;13153;52.316;21.166;2022-12-11T08:36:15;99251.56;;;2.19;62.13
34124;BME280;13153;52.316;21.166;2022-12-11T08:38:41;99246.31;;;2.18;61.21
34124;BME280;13153;52.316;21.166;2022-12-11T08:41:28;99255.16;;;2.23;61.56
34124;BME280;13153;52.316;21.166;2022-12-11T08:43:55;99244.91;;;2.26;61.75
34124;BME280;13153;52.316;21.166;2022-12-11T08:46:27;99240.59;;;2.26;61.29
34124;BME280;13153;52.316;21.166;2022-12-11T08:48:54;99232.00;;;2.27;61.20
34124;BME280;13153;52.316;21.166;2022-12-11T08:51:24;99231.13;;;2.27;61.14
34124;BME280;13153;52.316;21.166;2022-12-11T08:53:54;99236.53;;;2.33;60.96
34124;BME280;13153;52.316;21.166;2022-12-11T08:56:21;99252.16;;;2.35;61.25
34124;BME280;13153;52.316;21.166;2022-12-11T08:58:49;99230.41;;;2.31;60.94
34124;BME280;13153;52.316;21.166;2022-12-11T09:01:22;99229.34;;;2.26;61.33
34124;BME280;13153;52.316;21.166;2022-12-11T09:03:50;99233.00;;;2.31;61.01
34124;BME280;13153;52.316;21.166;2022-12-11T09:06:20;99226.97;;;2.32;61.45
34124;BME280;13153;52.316;21.166;2022-12-11T09:08:48;99230.75;;;2.40;61.07
34124;BME280;13153;52.316;21.166;2022-12-11T09:11:21;99222.72;;;2.34;60.74
34124;BME280;13153;52.316;21.166;2022-12-11T09:13:48;99216.44;;;2.27;60.76
34124;BME280;13153;52.316;21.166;2022-12-11T09:16:18;99208.41;;;2.21;61.12
34124;BME280;13153;52.316;21.166;2022-12-11T09:18:47;99218.06;;;2.25;61.32
34124;BME280;13153;52.316;21.166;2022-12-11T09:21:18;99213.00;;;2.28;60.94
34124;BME280;13153;52.316;21.166;2022-12-11T09:23:44;99204.41;;;2.29;60.88
34124;BME280;13153;52.316;21.166;2022-12-11T09:26:15;99208.59;;;2.26;61.27
34124;BME280;13153;52.316;21.166;2022-12-11T09:28:42;99196.44;;;2.25;60.78
34124;BME280;13153;52.316;21.166;2022-12-11T09:31:24;99189.88;;;2.12;61.24
34124;BME280;13153;52.316;21.166;2022-12-11T09:33:54;99185.81;;;2.19;61.75
34124;BME280;13153;52.316;21.166;2022-12-11T09:36:20;99186.81;;;2.22;61.35
34124;BME280;13153;52.316;21.166;2022-12-11T09:38:46;99176.38;;;2.21;61.32
34124;BME280;13153;52.316;21.166;2022-12-11T09:44:19;99147.34;;;2.09;61.64
34124;BME280;13153;52.316;21.166;2022-12-11T09:46:46;99160.31;;;2.09;61.66
34124;BME280;13153;52.316;21.166;2022-12-11T09:50:01;99151.91;;;2.14;62.39
34124;BME280;13153;52.316;21.166;2022-12-11T09:52:37;99152.72;;;2.13;61.61
34124;BME280;13153;52.316;21.166;2022-12-11T09:55:15;99154.63;;;2.17;61.60
34124;BME280;13153;52.316;21.166;2022-12-11T10:01:31;99140.63;;;2.14;61.54
34124;BME280;13153;52.316;21.166;2022-12-11T10:07:12;99124.50;;;2.21;61.57
34124;BME280;13153;52.316;21.166;2022-12-11T10:10:28;99124.53;;;2.22;61.90
34124;BME280;13153;52.316;21.166;2022-12-11T10:16:04;99119.25;;;2.19;61.91
34124;BME280;13153;52.316;21.166;2022-12-11T10:18:34;99114.81;;;2.17;61.29
34124;BME280;13153;52.316;21.166;2022-12-11T10:21:02;99117.22;;;2.12;61.28
34124;BME280;13153;52.316;21.166;2022-12-11T10:23:41;99110.38;;;2.14;61.64
34124;BME280;13153;52.316;21.166;2022-12-11T10:26:21;99113.22;;;2.20;61.65
34124;BME280;13153;52.316;21.166;2022-12-11T10:28:47;99101.13;;;2.21;61.11
34124;BME280;13153;52.316;21.166;2022-12-11T10:31:23;99095.81;;;2.18;61.14
34124;BME280;13153;52.316;21.166;2022-12-11T10:34:09;99094.06;;;2.17;60.89
34124;BME280;13153;52.316;21.166;2022-12-11T10:36:39;99098.25;;;2.13;61.32
34124;BME280;13153;52.316;21.166;2022-12-11T10:39:20;99081.16;;;2.18;61.30
34124;BME280;13153;52.316;21.166;2022-12-11T10:41:52;99090.69;;;2.19;61.04
34124;BME280;13153;52.316;21.166;2022-12-11T10:44:30;99089.09;;;2.23;60.99
34124;BME280;13153;52.316;21.166;2022-12-11T10:49:34;99091.94;;;2.07;60.72
34124;BME280;13153;52.316;21.166;2022-12-11T10:52:01;99075.59;;;2.09;61.31
34124;BME280;13153;52.316;21.166;2022-12-11T10:54:43;99069.66;;;2.12;60.91
34124;BME280;13153;52.316;21.166;2022-12-11T10:57:13;99069.72;;;2.13;60.84
34124;BME280;13153;52.316;21.166;2022-12-11T11:02:24;99059.34;;;2.13;60.44
34124;BME280;13153;52.316;21.166;2022-12-11T11:04:53;99061.03;;;2.13;60.75
34124;BME280;13153;52.316;21.166;2022-12-11T11:07:27;99044.81;;;2.18;60.74
34124;BME280;13153;52.316;21.166;2022-12-11T11:12:39;99032.44;;;2.11;61.25
34124;BME280;13153;52.316;21.166;2022-12-11T11:15:17;99032.78;;;2.20;61.10
34124;BME280;13153;52.316;21.166;2022-12-11T11:17:47;99032.13;;;2.26;61.51
34124;BME280;13153;52.316;21.166;2022-12-11T11:20:18;99025.34;;;2.29;61.24
34124;BME280;13153;52.316;21.166;2022-12-11T11:22:55;99020.81;;;2.24;60.64
34124;BME280;13153;52.316;21.166;2022-12-11T11:25:25;99019.59;;;2.14;60.59
34124;BME280;13153;52.316;21.166;2022-12-11T11:28:00;99009.81;;;2.07;60.51
34124;BME280;13153;52.316;21.166;2022-12-11T11:30:33;99021.25;;;2.12;61.04
34124;BME280;13153;52.316;21.166;2022-12-11T11:33:13;99012.03;;;2.20;61.01
34124;BME280;13153;52.316;21.166;2022-12-11T11:38:28;99015.34;;;2.16;61.24
34124;BME280;13153;52.316;21.166;2022-12-11T11:41:14;99012.56;;;2.12;61.02
34124;BME280;13153;52.316;21.166;2022-12-11T11:43:59;99012.56;;;2.12;61.42
34124;BME280;13153;52.316;21.166;2022-12-11T11:51:46;99012.97;;;2.22;61.05
34124;BME280;13153;52.316;21.166;2022-12-11T11:54:37;99001.94;;;2.28;60.69
34124;BME280;13153;52.316;21.166;2022-12-11T11:57:14;99001.16;;;2.30;60.85
34124;BME280;13153;52.316;21.166;2022-12-11T11:59:49;99000.22;;;2.28;60.94
34124;BME280;13153;52.316;21.166;2022-12-11T12:02:18;98993.34;;;2.29;60.77
34124;BME280;13153;52.316;21.166;2022-12-11T12:04:46;99006.31;;;2.29;61.21
34124;BME280;13153;52.316;21.166;2022-12-11T12:07:47;99002.88;;;2.30;61.00
34124;BME280;13153;52.316;21.166;2022-12-11T13:24:58;98953.59;;;2.55;60.23
34124;BME280;13153;52.316;21.166;2022-12-11T13:30:25;98950.63;;;2.45;59.84
34124;BME280;13153;52.316;21.166;2022-12-11T13:33:05;98954.81;;;2.41;59.55
34124;BME280;13153;52.316;21.166;2022-12-11T13:35:34;98956.59;;;2.42;60.11
34124;BME280;13153;52.316;21.166;2022-12-11T13:38:15;98961.31;;;2.54;60.87
34124;BME280;13153;52.316;21.166;2022-12-11T13:40:44;98957.84;;;2.53;60.28
34124;BME280;13153;52.316;21.166;2022-12-11T13:43:23;98964.81;;;2.54;59.67
34124;BME280;13153;52.316;21.166;2022-12-11T13:46:03;98962.09;;;2.51;59.54
34124;BME280;13153;52.316;21.166;2022-12-11T13:48:37;98967.34;;;2.53;59.87
34124;BME280;13153;52.316;21.166;2022-12-11T13:51:05;98964.59;;;2.48;59.88
34124;BME280;13153;52.316;21.166;2022-12-11T13:53:31;98954.97;;;2.46;59.88
34124;BME280;13153;52.316;21.166;2022-12-11T13:56:06;98948.84;;;2.44;59.28
34124;BME280;13153;52.316;21.166;2022-12-11T13:58:39;98946.03;;;2.38;58.88
34124;BME280;13153;52.316;21.166;2022-12-11T14:03:56;98942.25;;;2.28;59.28
34124;BME280;13153;52.316;21.166;2022-12-11T14:06:24;98938.78;;;2.27;59.99
34124;BME280;13153;52.316;21.166;2022-12-11T14:08:53;98937.78;;;2.24;59.83
34124;BME280;13153;52.316;21.166;2022-12-11T14:11:34;98940.38;;;2.24;59.69
34124;BME280;13153;52.316;21.166;2022-12-11T14:14:06;98944.81;;;2.26;59.50
34124;BME280;13153;52.316;21.166;2022-12-11T14:16:33;98948.34;;;2.28;59.57
34124;BME280;13153;52.316;21.166;2022-12-11T14:19:06;98949.28;;;2.30;60.17
34124;BME280;13153;52.316;21.166;2022-12-11T14:21:35;98945.81;;;2.30;60.03
34124;BME280;13153;52.316;21.166;2022-12-11T14:24:02;98937.03;;;2.26;59.82
34124;BME280;13153;52.316;21.166;2022-12-11T14:26:33;98932.59;;;2.24;60.39
34124;BME280;13153;52.316;21.166;2022-12-11T14:28:59;98938.78;;;2.27;60.40
34124;BME280;13153;52.316;21.166;2022-12-11T14:31:38;98929.34;;;2.29;60.76
34124;BME280;13153;52.316;21.166;2022-12-11T14:34:29;98931.13;;;2.30;60.28
34124;BME280;13153;52.316;21.166;2022-12-11T14:36:59;98930.22;;;2.30;60.61
34124;BME280;13153;52.316;21.166;2022-12-11T14:39:46;98923.34;;;2.32;60.47
34124;BME280;13153;52.316;21.166;2022-12-11T14:42:21;98923.34;;;2.32;60.82
34124;BME280;13153;52.316;21.166;2022-12-11T14:44:55;98931.13;;;2.32;60.08
34124;BME280;13153;52.316;21.166;2022-12-11T14:47:32;98919.88;;;2.31;60.24
34124;BME280;13153;52.316;21.166;2022-12-11T14:52:52;98918.84;;;2.26;60.35
34124;BME280;13153;52.316;21.166;2022-12-11T14:55:33;98910.91;;;2.22;60.45
34124;BME280;13153;52.316;21.166;2022-12-11T14:58:10;98915.16;;;2.20;60.33
34124;BME280;13153;52.316;21.166;2022-12-11T15:00:39;98913.44;;;2.20;59.82
34124;BME280;13153;52.316;21.166;2022-12-11T15:05:54;98917.75;;;2.20;60.10
34124;BME280;13153;52.316;21.166;2022-12-11T15:08:26;98910.91;;;2.22;60.29
34124;BME280;13153;52.316;21.166;2022-12-11T15:11:14;98916.25;;;2.26;60.63
34124;BME280;13153;52.316;21.166;2022-12-11T15:14:01;98905.06;;;2.27;60.10
34124;BME280;13153;52.316;21.166;2022-12-11T15:16:32;98908.47;;;2.26;60.24
34124;BME280;13153;52.316;21.166;2022-12-11T15:19:00;98907.66;;;2.27;59.66
34124;BME280;13153;52.316;21.166;2022-12-11T15:21:30;98914.59;;;2.28;60.45
34124;BME280;13153;52.316;21.166;2022-12-11T15:23:59;98926.53;;;2.23;60.15
34124;BME280;13153;52.316;21.166;2022-12-11T15:26:45;98930.22;;;2.30;61.01
34124;BME280;13153;52.316;21.166;2022-12-11T15:29:30;98930.31;;;2.33;60.71
34124;BME280;13153;52.316;21.166;2022-12-11T15:32:18;98929.41;;;2.32;59.99
34124;BME280;13153;52.316;21.166;2022-12-11T15:34:56;98939.78;;;2.31;60.79
34124;BME280;13153;52.316;21.166;2022-12-11T15:37:33;98936.31;;;2.30;60.57